Time;durP1;ratioP1;P1;durP2;ratioP2;P2;SDS_P1;SDS_P2;PMS_P1;PMS_P2;Temp;Humidity;BMP_temperature;BMP_pressure;BME280_temperature;BME280_humidity;BME280_pressure;Samples;Min_cycle;Max_cycle;Signal;HPM_P1;HPM_P2
2023/08/28 00:00:04;;;;;;;2.80;2.40;;;;;;;20.13;61.71;93256.50;513717;28;904;-47
2023/08/28 00:00:20;;;;;;;2.50;2.30;;;;;;;20.14;61.50;93263.59;513729;28;841;-45
2023/08/28 00:00:35;;;;;;;3.03;2.47;;;;;;;20.13;61.62;93267.72;513694;28;1197;-45
2023/08/28 00:00:50;;;;;;;2.77;2.50;;;;;;;20.12;61.73;93255.06;513307;28;1734;-45
2023/08/28 00:01:06;;;;;;;2.58;2.38;;;;;;;20.13;61.74;93262.13;513681;28;880;-45
2023/08/28 00:01:22;;;;;;;2.50;2.30;;;;;;;20.11;61.88;93256.41;513276;28;1174;-46
2023/08/28 00:01:37;;;;;;;2.15;1.95;;;;;;;20.11;61.95;93259.19;511875;28;808;-46
2023/08/28 00:01:53;;;;;;;1.80;1.70;;;;;;;20.09;62.13;93257.03;512578;28;1024;-46
2023/08/28 00:02:09;;;;;;;2.15;1.95;;;;;;;20.10;62.06;93257.72;513864;28;910;-45
2023/08/28 00:02:25;;;;;;;3.22;2.35;;;;;;;20.10;62.16;93257.72;513760;28;844;-45
2023/08/28 00:02:41;;;;;;;2.83;2.10;;;;;;;20.08;62.23;93260.44;513879;28;864;-45
2023/08/28 00:02:56;;;;;;;2.17;1.98;;;;;;;20.07;61.92;93254.13;513811;28;876;-46
2023/08/28 00:03:12;;;;;;;3.00;2.33;;;;;;;20.08;62.11;93260.44;513947;28;770;-44
2023/08/28 00:03:27;;;;;;;3.75;2.70;;;;;;;20.08;62.18;93257.63;513788;28;1084;-45
2023/08/28 00:03:43;;;;;;;3.70;2.60;;;;;;;20.07;62.20;93256.91;513540;28;1723;-46
2023/08/28 00:03:58;;;;;;;3.05;2.55;;;;;;;20.06;62.09;93258.25;512652;28;786;-45
2023/08/28 00:04:14;;;;;;;2.73;2.50;;;;;;;20.06;62.34;93249.09;513720;28;1278;-45
2023/08/28 00:04:30;;;;;;;3.07;2.43;;;;;;;20.06;62.09;93258.25;511826;28;849;-44
2023/08/28 00:04:46;;;;;;;3.75;2.30;;;;;;;20.07;61.99;93254.13;511930;28;924;-44
2023/08/28 00:05:01;;;;;;;3.10;2.40;;;;;;;20.06;62.03;93247.03;513750;28;1190;-45
2023/08/28 00:05:17;;;;;;;2.67;2.42;;;;;;;20.07;61.91;93256.19;513975;28;856;-44
2023/08/28 00:05:32;;;;;;;2.73;2.17;;;;;;;20.05;61.81;93262.41;513637;28;2514;-45
2023/08/28 00:05:48;;;;;;;3.38;2.20;;;;;;;20.08;61.84;93257.63;513744;28;771;-45
2023/08/28 00:06:03;;;;;;;3.90;2.13;;;;;;;20.07;61.81;93253.38;513609;28;801;-44
2023/08/28 00:06:19;;;;;;;3.22;2.10;;;;;;;20.08;61.88;93255.56;513489;28;1068;-47
2023/08/28 00:06:34;;;;;;;3.50;2.50;;;;;;;20.08;62.00;93254.81;513658;28;1239;-45
2023/08/28 00:06:51;;;;;;;3.60;2.90;;;;;;;20.06;62.20;93254.72;513818;28;827;-47
2023/08/28 00:07:06;;;;;;;2.80;2.53;;;;;;;20.07;62.25;93253.38;513685;28;860;-44
2023/08/28 00:07:22;;;;;;;2.72;2.17;;;;;;;20.07;62.39;93258.97;513345;28;1477;-46
2023/08/28 00:07:37;;;;;;;2.97;2.47;;;;;;;20.07;62.23;93254.13;514534;28;872;-45
2023/08/28 00:07:52;;;;;;;2.50;2.30;;;;;;;20.06;62.17;93254.72;514822;28;819;-45
2023/08/28 00:08:10;;;;;;;2.30;2.10;;;;;;;20.07;62.13;93256.91;515645;28;963;-46
2023/08/28 00:08:25;;;;;;;2.53;2.25;;;;;;;20.07;62.32;93251.31;515117;28;1018;-45
2023/08/28 00:08:41;;;;;;;2.50;2.30;;;;;;;20.07;62.17;93256.91;514000;28;793;-45
2023/08/28 00:08:56;;;;;;;2.70;2.50;;;;;;;20.05;62.30;93254.00;513809;28;1085;-45
2023/08/28 00:09:11;;;;;;;2.70;2.50;;;;;;;20.03;62.47;93258.75;513880;28;884;-46
2023/08/28 00:09:27;;;;;;;3.47;2.30;;;;;;;20.02;62.47;93258.03;513727;28;914;-46
2023/08/28 00:09:42;;;;;;;3.42;2.50;;;;;;;20.03;62.49;93258.75;513916;28;952;-45
2023/08/28 00:09:58;;;;;;;2.93;2.70;;;;;;;20.03;62.43;93259.47;513810;28;847;-45
2023/08/28 00:10:13;;;;;;;2.83;2.60;;;;;;;20.04;62.59;93254.59;513902;28;908;-46
2023/08/28 00:10:28;;;;;;;2.97;2.67;;;;;;;20.04;62.61;93254.59;513255;28;1813;-46
2023/08/28 00:10:44;;;;;;;3.73;2.73;;;;;;;20.01;62.40;93255.84;512839;28;811;-46
2023/08/28 00:10:59;;;;;;;3.75;2.58;;;;;;;20.05;62.62;93256.81;513863;28;817;-45
2023/08/28 00:11:15;;;;;;;2.63;2.37;;;;;;;20.03;62.60;93258.75;513823;28;873;-45
2023/08/28 00:11:30;;;;;;;2.73;2.27;;;;;;;20.04;62.54;93251.78;513821;28;895;-45
2023/08/28 00:11:45;;;;;;;2.95;2.25;;;;;;;20.05;62.25;93253.25;513858;28;892;-46
2023/08/28 00:12:02;;;;;;;2.67;2.37;;;;;;;20.05;62.21;93250.47;513800;28;775;-46
2023/08/28 00:12:18;;;;;;;2.85;2.55;;;;;;;20.05;62.18;93251.19;513886;28;952;-45
2023/08/28 00:12:36;;;;;;;2.97;2.60;;;;;;;20.05;62.08;93245.59;513813;28;817;-45
2023/08/28 00:12:52;;;;;;;2.90;2.30;;;;;;;20.06;62.06;93246.31;513900;28;814;-46
2023/08/28 00:13:07;;;;;;;2.97;2.40;;;;;;;20.07;62.09;93247.78;513824;28;876;-45
2023/08/28 00:13:22;;;;;;;2.93;2.37;;;;;;;20.08;62.13;93246.41;513965;28;809;-44
2023/08/28 00:13:38;;;;;;;3.15;2.33;;;;;;;20.08;62.10;93249.94;513762;28;1027;-45
2023/08/28 00:13:53;;;;;;;3.10;2.30;;;;;;;20.09;62.21;93247.88;512884;28;1767;-45
2023/08/28 00:14:08;;;;;;;2.60;2.33;;;;;;;20.06;62.13;93249.09;513881;28;769;-46
2023/08/28 00:14:24;;;;;;;2.55;2.30;;;;;;;20.09;62.09;93253.50;512653;28;826;-45
2023/08/28 00:14:40;;;;;;;2.47;2.28;;;;;;;20.10;62.02;93252.13;511872;28;886;-44
2023/08/28 00:14:55;;;;;;;2.87;2.67;;;;;;;20.10;61.96;93250.06;513025;28;880;-45
2023/08/28 00:15:11;;;;;;;3.07;2.77;;;;;;;20.10;61.90;93252.88;511852;28;790;-45
2023/08/28 00:15:26;;;;;;;3.05;2.72;;;;;;;20.10;61.91;93246.53;512219;28;1159;-46
2023/08/28 00:15:42;;;;;;;3.33;2.50;;;;;;;20.10;61.88;93250.06;513923;28;1088;-44
2023/08/28 00:15:57;;;;;;;3.43;2.30;;;;;;;20.10;61.90;93250.06;513720;28;986;-45
2023/08/28 00:16:13;;;;;;;3.77;2.33;;;;;;;20.10;61.90;93246.53;513777;28;1973;-46
2023/08/28 00:16:28;;;;;;;3.13;2.22;;;;;;;20.10;61.83;93255.66;513812;28;892;-44
2023/08/28 00:16:43;;;;;;;2.50;2.20;;;;;;;20.11;61.79;93256.41;513915;28;820;-45
2023/08/28 00:16:59;;;;;;;2.60;2.33;;;;;;;20.11;61.81;93242.38;513788;28;889;-46
2023/08/28 00:17:16;;;;;;;3.30;2.40;;;;;;;20.11;61.87;93248.00;513485;28;1675;-45
2023/08/28 00:17:31;;;;;;;2.97;2.20;;;;;;;20.11;61.88;93248.00;512731;28;911;-45
2023/08/28 00:17:47;;;;;;;2.53;2.10;;;;;;;20.11;61.87;93248.00;513599;28;785;-46
2023/08/28 00:18:02;;;;;;;2.50;2.30;;;;;;;20.10;61.81;93247.25;511893;28;852;-45
2023/08/28 00:18:18;;;;;;;2.37;2.17;;;;;;;20.10;61.85;93252.88;511895;28;865;-45
2023/08/28 00:18:33;;;;;;;2.17;1.98;;;;;;;20.10;61.78;93246.53;513788;28;882;-45
2023/08/28 00:18:49;;;;;;;2.60;2.40;;;;;;;20.10;61.81;93247.25;513843;28;931;-46
2023/08/28 00:19:04;;;;;;;2.60;2.40;;;;;;;20.09;61.87;93251.41;513919;28;1476;-45
2023/08/28 00:19:20;;;;;;;2.45;2.25;;;;;;;20.07;61.89;93245.72;513886;28;857;-45
2023/08/28 00:19:35;;;;;;;2.45;2.22;;;;;;;20.10;62.06;93247.25;513826;28;1092;-45
2023/08/28 00:19:51;;;;;;;2.35;2.15;;;;;;;20.08;61.84;93249.94;513801;28;789;-44
2023/08/28 00:20:09;;;;;;;2.47;2.27;;;;;;;20.09;61.84;93251.41;512651;28;1476;-45
2023/08/28 00:20:25;;;;;;;2.25;2.05;;;;;;;20.08;61.80;93249.94;513698;28;863;-44
2023/08/28 00:20:40;;;;;;;2.50;2.27;;;;;;;20.08;61.78;93257.63;511757;29;816;-44
2023/08/28 00:20:56;;;;;;;2.90;2.63;;;;;;;20.09;61.67;93247.88;511818;28;837;-45
2023/08/28 00:21:11;;;;;;;2.70;2.50;;;;;;;20.09;61.78;93253.50;513668;28;926;-44
2023/08/28 00:21:27;;;;;;;2.57;2.27;;;;;;;20.08;61.88;93252.75;513597;28;1354;-45
2023/08/28 00:21:42;;;;;;;3.22;2.50;;;;;;;20.07;61.95;93256.19;513806;28;856;-45
2023/08/28 00:21:57;;;;;;;3.13;2.53;;;;;;;20.07;61.91;93256.91;513679;28;791;-45
2023/08/28 00:22:13;;;;;;;3.00;2.50;;;;;;;20.07;62.11;93253.38;513702;28;1056;-45
2023/08/28 00:22:28;;;;;;;2.65;2.40;;;;;;;20.06;62.08;93254.72;513930;28;809;-45
2023/08/28 00:22:43;;;;;;;2.50;2.30;;;;;;;20.06;62.03;93254.72;513928;28;852;-44
2023/08/28 00:22:59;;;;;;;2.43;2.20;;;;;;;20.05;62.08;93251.19;513709;28;1163;-44
2023/08/28 00:23:14;;;;;;;2.53;2.33;;;;;;;20.05;61.94;93253.25;513861;28;932;-45
2023/08/28 00:23:32;;;;;;;2.63;2.43;;;;;;;20.04;61.91;93255.34;513905;28;818;-45
2023/08/28 00:23:48;;;;;;;2.50;2.25;;;;;;;20.04;61.79;93254.59;513173;28;1735;-45
2023/08/28 00:24:04;;;;;;;2.67;2.20;;;;;;;20.04;61.86;93260.19;513200;28;1097;-46
2023/08/28 00:24:20;;;;;;;2.58;2.20;;;;;;;20.03;61.80;93264.38;512220;28;852;-44
2023/08/28 00:24:35;;;;;;;3.00;2.50;;;;;;;20.02;61.62;93257.28;513234;28;1357;-45
2023/08/28 00:24:50;;;;;;;3.60;2.53;;;;;;;20.02;61.60;93257.28;513471;28;817;-45
2023/08/28 00:25:07;;;;;;;3.50;2.30;;;;;;;20.01;61.52;93259.34;513090;28;841;-45
2023/08/28 00:25:22;;;;;;;2.80;2.30;;;;;;;20.01;61.47;93262.16;513855;28;852;-44
2023/08/28 00:25:38;;;;;;;2.63;2.30;;;;;;;20.00;61.44;93257.19;513725;28;1327;-45
2023/08/28 00:25:53;;;;;;;2.43;2.17;;;;;;;19.98;61.52;93257.81;513553;28;1125;-44
2023/08/28 00:26:09;;;;;;;2.38;2.08;;;;;;;19.98;61.58;93259.88;513563;28;872;-44
2023/08/28 00:26:24;;;;;;;2.43;2.00;;;;;;;19.96;61.50;93257.69;513830;28;918;-44
2023/08/28 00:26:39;;;;;;;2.28;2.00;;;;;;;19.96;61.60;93265.34;513855;28;861;-44
2023/08/28 00:26:55;;;;;;;2.20;2.00;;;;;;;19.94;61.57;93263.19;513924;28;818;-45
2023/08/28 00:27:10;;;;;;;2.30;2.03;;;;;;;19.92;61.60;93263.06;513796;28;1143;-45
2023/08/28 00:27:25;;;;;;;2.28;2.08;;;;;;;19.91;61.55;93266.47;512825;28;1739;-44
2023/08/28 00:27:41;;;;;;;2.53;2.28;;;;;;;19.90;61.65;93262.97;513322;28;1125;-44
2023/08/28 00:27:56;;;;;;;2.57;2.30;;;;;;;19.89;61.73;93263.56;512493;28;1192;-44
2023/08/28 00:28:11;;;;;;;2.47;2.10;;;;;;;19.88;61.71;93268.41;513855;28;1013;-44
2023/08/28 00:28:27;;;;;;;2.67;2.10;;;;;;;19.87;61.78;93264.19;513883;28;852;-45
2023/08/28 00:28:42;;;;;;;3.00;2.10;;;;;;;19.86;61.68;93262.72;513774;28;1193;-44
2023/08/28 00:28:58;;;;;;;3.10;2.15;;;;;;;19.84;61.71;93271.00;513805;28;924;-44
2023/08/28 00:29:13;;;;;;;2.63;2.30;;;;;;;19.84;61.90;93264.69;513636;28;698;-45
2023/08/28 00:29:28;;;;;;;3.70;2.40;;;;;;;19.83;61.78;93268.81;513537;28;2338;-45
2023/08/28 00:29:44;;;;;;;3.35;2.17;;;;;;;19.81;61.90;93263.84;513737;28;842;-44
2023/08/28 00:30:00;;;;;;;3.20;2.20;;;;;;;19.79;61.87;93263.72;513578;28;879;-45
2023/08/28 00:30:15;;;;;;;4.10;2.30;;;;;;;19.80;61.89;93264.44;509716;29;867;-45
2023/08/28 00:30:30;;;;;;;3.03;2.20;;;;;;;19.78;61.82;93265.06;509746;29;873;-44
2023/08/28 00:30:46;;;;;;;2.80;2.30;;;;;;;19.78;61.94;93264.31;509759;29;837;-45
2023/08/28 00:31:03;;;;;;;2.85;2.15;;;;;;;19.77;62.01;93265.69;510668;28;853;-46
2023/08/28 00:31:19;;;;;;;3.05;2.33;;;;;;;19.77;61.91;93262.88;513640;28;924;-44
2023/08/28 00:31:56;;;;;;;3.53;2.63;;;;;;;19.75;62.08;93271.16;512981;28;1731;-44
2023/08/28 00:32:12;;;;;;;3.05;2.15;;;;;;;19.74;62.21;93261.28;513639;28;863;-46
2023/08/28 00:32:27;;;;;;;2.78;2.33;;;;;;;19.71;62.26;93268.84;513842;28;822;-44
2023/08/28 00:32:43;;;;;;;2.60;2.40;;;;;;;19.72;62.37;93270.31;511854;29;908;-45
2023/08/28 00:32:58;;;;;;;2.67;2.40;;;;;;;19.71;62.44;93268.84;512227;28;766;-44
2023/08/28 00:33:13;;;;;;;2.53;2.20;;;;;;;19.70;62.54;93256.19;513746;28;1472;-45
2023/08/28 00:33:29;;;;;;;2.30;2.07;;;;;;;19.71;62.67;93265.34;513851;28;773;-44
2023/08/28 00:33:44;;;;;;;2.63;2.20;;;;;;;19.69;62.73;93263.13;512146;28;864;-45
2023/08/28 00:33:59;;;;;;;2.75;2.28;;;;;;;19.69;62.78;93265.94;512226;28;898;-44
2023/08/28 00:34:15;;;;;;;2.57;2.37;;;;;;;19.70;62.90;93261.06;512766;28;1708;-45
2023/08/28 00:34:31;;;;;;;2.38;2.17;;;;;;;19.67;62.78;93263.75;513310;28;1290;-45
2023/08/28 00:34:47;;;;;;;2.10;1.90;;;;;;;19.68;62.91;93261.69;513856;28;872;-44
2023/08/28 00:35:02;;;;;;;1.90;1.80;;;;;;;19.67;62.86;93263.75;513802;28;830;-44
2023/08/28 00:35:18;;;;;;;2.20;2.00;;;;;;;19.67;62.89;93265.81;513854;28;853;-45
2023/08/28 00:35:33;;;;;;;2.37;2.13;;;;;;;19.66;62.96;93261.56;513828;28;885;-46
2023/08/28 00:35:49;;;;;;;2.50;2.23;;;;;;;19.66;62.83;93259.47;513798;28;775;-45
2023/08/28 00:36:04;;;;;;;2.55;2.35;;;;;;;19.66;62.82;93261.56;513747;28;1044;-45
2023/08/28 00:36:20;;;;;;;2.60;2.38;;;;;;;19.67;62.69;93263.00;512656;28;1108;-44
2023/08/28 00:36:35;;;;;;;2.63;2.37;;;;;;;19.64;62.68;93259.38;511880;28;808;-44
2023/08/28 00:36:51;;;;;;;2.45;2.10;;;;;;;19.65;62.61;93260.09;511838;28;837;-44
2023/08/28 00:37:06;;;;;;;2.20;2.00;;;;;;;19.65;62.56;93260.84;513072;28;1726;-45
2023/08/28 00:37:21;;;;;;;2.13;1.93;;;;;;;19.65;62.50;93260.84;512367;28;801;-45
2023/08/28 00:37:37;;;;;;;2.42;2.22;;;;;;;19.64;62.43;93255.84;512570;28;1223;-44
2023/08/28 00:37:52;;;;;;;2.53;2.33;;;;;;;19.63;62.52;93263.53;513763;28;948;-45
2023/08/28 00:38:09;;;;;;;2.53;2.33;;;;;;;19.63;62.55;93257.19;513595;28;1177;-45
2023/08/28 00:38:24;;;;;;;2.70;2.38;;;;;;;19.62;62.52;93256.44;513712;28;916;-45
2023/08/28 00:38:39;;;;;;;3.03;2.30;;;;;;;19.61;62.54;93249.41;513644;28;870;-46
2023/08/28 00:38:55;;;;;;;3.00;2.30;;;;;;;19.61;62.73;93255.00;513679;28;785;-44
2023/08/28 00:39:10;;;;;;;2.70;2.40;;;;;;;19.61;62.68;93251.47;513524;28;1071;-44
2023/08/28 00:39:27;;;;;;;2.40;2.20;;;;;;;19.59;62.56;93252.09;512099;28;779;-44
2023/08/28 00:39:43;;;;;;;2.30;2.10;;;;;;;19.59;62.67;93252.09;511628;28;914;-45
2023/08/28 00:39:58;;;;;;;2.53;2.10;;;;;;;19.59;62.56;93252.09;512774;28;1639;-44
2023/08/28 00:40:13;;;;;;;3.83;2.17;;;;;;;19.57;62.66;93251.25;513816;28;881;-45
2023/08/28 00:40:29;;;;;;;4.10;2.20;;;;;;;19.57;62.74;93254.78;512332;28;814;-44
2023/08/28 00:40:44;;;;;;;3.57;2.10;;;;;;;19.56;62.95;93252.56;513579;28;1170;-44
2023/08/28 00:41:00;;;;;;;3.55;2.20;;;;;;;19.54;62.85;93258.78;513867;28;801;-44
2023/08/28 00:41:15;;;;;;;2.57;2.27;;;;;;;19.54;62.88;93246.84;513755;28;1534;-45
2023/08/28 00:41:30;;;;;;;3.60;2.30;;;;;;;19.53;62.97;93256.63;513850;28;916;-44
2023/08/28 00:41:46;;;;;;;3.58;2.40;;;;;;;19.52;63.12;93244.69;513823;28;841;-44
2023/08/28 00:42:01;;;;;;;3.20;2.50;;;;;;;19.52;63.19;93246.75;513664;28;984;-45
2023/08/28 00:42:17;;;;;;;4.25;2.40;;;;;;;19.52;63.19;93255.13;513790;28;1024;-45
2023/08/28 00:42:32;;;;;;;3.77;2.50;;;;;;;19.51;63.24;93245.28;513888;28;1172;-45
2023/08/28 00:42:48;;;;;;;3.00;2.63;;;;;;;19.51;63.19;93254.41;513857;28;927;-44
2023/08/28 00:43:03;;;;;;;3.13;2.50;;;;;;;19.50;63.21;93252.22;513849;28;821;-44
2023/08/28 00:43:18;;;;;;;3.60;2.63;;;;;;;19.48;63.33;93250.03;513783;28;828;-45
2023/08/28 00:43:34;;;;;;;3.22;2.70;;;;;;;19.47;63.28;93254.19;513402;28;1520;-45
2023/08/28 00:43:49;;;;;;;3.17;2.60;;;;;;;19.47;63.41;93250.63;513194;28;1164;-47
2023/08/28 00:44:05;;;;;;;3.07;2.57;;;;;;;19.46;63.33;93247.13;512971;28;992;-46
2023/08/28 00:44:20;;;;;;;2.67;2.45;;;;;;;19.45;63.63;93254.06;513793;28;936;-44
2023/08/28 00:44:36;;;;;;;3.00;2.70;;;;;;;19.44;63.67;93244.22;513796;28;912;-45
2023/08/28 00:44:51;;;;;;;4.07;2.90;;;;;;;19.44;63.67;93249.81;511734;28;920;-45
2023/08/28 00:45:07;;;;;;;3.83;2.50;;;;;;;19.43;63.61;93251.16;513175;28;869;-45
2023/08/28 00:45:22;;;;;;;2.90;2.33;;;;;;;19.43;63.55;93253.94;509671;29;814;-45
2023/08/28 00:45:41;;;;;;;2.93;2.40;;;;;;;19.43;63.66;93253.94;509717;29;863;-45
2023/08/28 00:45:56;;;;;;;2.70;2.47;;;;;;;19.44;63.67;93247.00;509682;29;814;-46
2023/08/28 00:46:12;;;;;;;2.77;2.33;;;;;;;19.43;63.74;93253.94;509740;29;772;-45
2023/08/28 00:46:27;;;;;;;2.40;2.13;;;;;;;19.43;63.76;93248.34;509625;29;900;-47
2023/08/28 00:46:43;;;;;;;2.43;2.10;;;;;;;19.41;63.72;93248.22;509712;29;1123;-45
2023/08/28 00:46:59;;;;;;;2.65;2.10;;;;;;;19.41;63.90;93251.03;509651;29;1084;-45
2023/08/28 00:47:14;;;;;;;3.83;2.13;;;;;;;19.43;63.93;93244.81;510410;29;944;-45
2023/08/28 00:47:30;;;;;;;4.00;2.30;;;;;;;19.42;63.76;93244.09;509449;29;1662;-45
2023/08/28 00:47:46;;;;;;;2.67;2.40;;;;;;;19.42;64.05;93241.31;509625;29;1060;-44
2023/08/28 00:48:02;;;;;;;3.17;2.60;;;;;;;19.33;64.13;93236.53;511794;28;835;-45
2023/08/28 00:48:19;;;;;;;2.72;2.33;;;;;;;19.38;64.23;93245.94;513581;28;1577;-45
2023/08/28 00:48:35;;;;;;;3.03;2.30;;;;;;;19.36;64.46;93245.81;513693;28;1005;-46
2023/08/28 00:48:50;;;;;;;3.87;2.40;;;;;;;19.33;64.54;93244.94;513696;28;812;-46
2023/08/28 00:49:06;;;;;;;3.40;2.30;;;;;;;19.31;64.71;93242.03;513654;28;839;-45
2023/08/28 00:49:22;;;;;;;2.53;2.30;;;;;;;19.29;64.83;93241.16;512801;28;1404;-45
2023/08/28 00:49:37;;;;;;;3.77;2.50;;;;;;;19.28;64.81;93240.44;513532;28;1581;-45
2023/08/28 00:49:53;;;;;;;4.40;2.70;;;;;;;19.27;64.91;93239.00;513701;28;984;-45
2023/08/28 00:50:09;;;;;;;2.73;2.47;;;;;;;19.27;64.93;93238.25;512628;28;1636;-46
2023/08/28 00:50:25;;;;;;;2.40;2.20;;;;;;;19.17;64.86;93224.38;513285;28;757;-44
2023/08/28 00:50:40;;;;;;;2.58;2.38;;;;;;;19.29;64.72;93241.91;513816;28;1079;-46
2023/08/28 00:50:56;;;;;;;2.93;2.63;;;;;;;19.30;64.76;93240.56;513919;28;1160;-45
2023/08/28 00:51:11;;;;;;;3.03;2.47;;;;;;;19.30;64.55;93240.56;515138;28;884;-46
2023/08/28 00:51:27;;;;;;;2.97;2.13;;;;;;;19.32;64.50;93240.66;515675;28;848;-45
2023/08/28 00:51:43;;;;;;;2.70;2.27;;;;;;;19.32;64.54;93243.47;513752;28;816;-46
2023/08/28 00:51:59;;;;;;;2.93;2.50;;;;;;;19.34;64.45;93242.88;513632;28;897;-45
2023/08/28 00:52:15;;;;;;;3.15;2.60;;;;;;;19.33;64.33;93239.34;511703;29;786;-46
2023/08/28 00:52:31;;;;;;;2.63;2.40;;;;;;;19.34;64.26;93234.47;509690;29;1181;-45
2023/08/28 00:52:47;;;;;;;2.25;2.05;;;;;;;19.35;64.28;93239.47;507310;29;1820;-45
2023/08/28 00:53:02;;;;;;;2.63;2.00;;;;;;;19.36;64.08;93234.63;508525;29;884;-45
2023/08/28 00:53:18;;;;;;;3.00;2.10;;;;;;;19.37;64.15;93244.47;506548;29;832;-45
2023/08/28 00:53:34;;;;;;;2.38;2.10;;;;;;;19.37;64.18;93242.41;506472;29;1604;-44
2023/08/28 00:53:49;;;;;;;2.55;2.35;;;;;;;19.37;63.96;93238.88;507616;29;924;-47
2023/08/28 00:54:07;;;;;;;2.90;2.57;;;;;;;19.38;63.99;93243.13;507709;29;817;-45
2023/08/28 00:54:23;;;;;;;2.70;2.33;;;;;;;19.38;63.87;93240.34;507773;29;928;-44
2023/08/28 00:54:41;;;;;;;2.38;2.17;;;;;;;19.38;63.83;93238.25;508546;29;916;-45
2023/08/28 00:54:57;;;;;;;2.50;2.30;;;;;;;19.38;63.66;93241.03;511258;29;1170;-45
2023/08/28 00:55:12;;;;;;;2.50;2.30;;;;;;;19.37;63.77;93236.06;512769;28;900;-44
2023/08/28 00:55:30;;;;;;;2.60;2.40;;;;;;;19.32;63.59;93229.47;512593;28;1809;-46
2023/08/28 00:55:45;;;;;;;3.22;2.50;;;;;;;19.38;63.73;93241.03;511867;28;1100;-44
2023/08/28 00:56:01;;;;;;;3.35;2.45;;;;;;;19.38;63.51;93241.03;509295;29;868;-44
2023/08/28 00:56:16;;;;;;;2.83;2.22;;;;;;;19.37;63.29;93231.19;510958;29;1912;-45
2023/08/28 00:56:32;;;;;;;2.80;2.30;;;;;;;19.34;62.99;93237.28;509721;29;813;-45
2023/08/28 00:56:48;;;;;;;2.77;2.37;;;;;;;19.32;63.22;93235.06;509776;29;777;-44
2023/08/28 00:57:03;;;;;;;2.55;2.35;;;;;;;19.31;63.41;93239.22;509687;29;904;-44
2023/08/28 00:57:19;;;;;;;2.38;2.17;;;;;;;19.32;63.35;93237.13;509646;29;884;-45
2023/08/28 00:57:34;;;;;;;3.37;2.20;;;;;;;19.32;63.08;93246.25;510105;29;1251;-44
2023/08/28 00:57:50;;;;;;;3.85;2.30;;;;;;;19.32;63.22;93232.28;509988;29;912;-45
2023/08/28 00:58:05;;;;;;;2.97;2.30;;;;;;;19.32;63.21;93239.94;509274;29;1618;-45
2023/08/28 00:58:21;;;;;;;3.25;2.53;;;;;;;19.25;63.22;93238.84;507667;29;889;-45
2023/08/28 00:58:37;;;;;;;2.60;2.33;;;;;;;19.24;63.09;93233.88;509669;29;891;-44
2023/08/28 00:58:52;;;;;;;2.30;2.10;;;;;;;19.24;62.73;93237.41;509692;29;1009;-46
2023/08/28 00:59:08;;;;;;;2.57;2.37;;;;;;;19.24;62.76;93240.19;509276;29;877;-46
2023/08/28 00:59:25;;;;;;;2.40;2.20;;;;;;;19.26;62.68;93234.72;507772;29;1614;-44
2023/08/28 00:59:41;;;;;;;2.55;2.35;;;;;;;19.26;62.59;93233.97;508403;29;907;-44
2023/08/28 00:59:56;;;;;;;2.90;2.45;;;;;;;19.25;62.58;93238.84;507624;29;896;-45
2023/08/28 01:00:12;;;;;;;2.83;2.40;;;;;;;19.22;62.97;93242.16;506173;29;1542;-44
2023/08/28 01:00:28;;;;;;;2.40;2.20;;;;;;;19.15;63.07;93232.66;507737;29;805;-45
2023/08/28 01:00:43;;;;;;;2.40;2.20;;;;;;;19.15;63.21;93235.47;507725;29;1126;-46
2023/08/28 01:00:58;;;;;;;2.60;2.30;;;;;;;19.13;63.16;93232.56;507728;29;896;-45
2023/08/28 01:01:14;;;;;;;2.30;2.10;;;;;;;19.15;62.93;93235.47;508285;29;831;-45
2023/08/28 01:01:29;;;;;;;2.38;2.13;;;;;;;19.15;62.98;93235.47;508109;29;1070;-44
2023/08/28 01:01:44;;;;;;;2.80;2.43;;;;;;;19.16;62.82;93236.94;510888;28;1124;-45
2023/08/28 01:02:00;;;;;;;3.17;2.50;;;;;;;19.17;62.77;93229.25;512030;28;789;-44
2023/08/28 01:02:15;;;;;;;3.20;2.30;;;;;;;19.18;62.74;93236.31;513578;28;1027;-44
2023/08/28 01:02:31;;;;;;;2.37;2.17;;;;;;;19.16;62.60;93230.59;511004;29;1779;-45
2023/08/28 01:02:46;;;;;;;2.33;2.13;;;;;;;19.21;62.76;93235.81;510748;29;892;-45
2023/08/28 01:03:03;;;;;;;2.53;2.17;;;;;;;19.21;62.85;93235.09;510035;28;877;-45
2023/08/28 01:03:19;;;;;;;3.38;2.50;;;;;;;19.22;62.70;93233.75;508094;29;1140;-45
2023/08/28 01:03:34;;;;;;;3.30;2.33;;;;;;;19.18;63.09;93233.53;507219;29;1631;-45
2023/08/28 01:03:49;;;;;;;2.87;2.13;;;;;;;19.14;63.32;93234.03;506600;29;822;-45
2023/08/28 01:04:05;;;;;;;3.58;2.42;;;;;;;19.12;63.42;93227.56;509165;29;1154;-46
2023/08/28 01:04:20;;;;;;;3.33;2.60;;;;;;;19.11;63.24;93229.63;510426;28;1297;-46
2023/08/28 01:04:35;;;;;;;3.00;2.60;;;;;;;19.11;63.04;93234.50;512026;29;906;-45
2023/08/28 01:04:52;;;;;;;3.20;2.57;;;;;;;19.12;62.91;93233.16;512429;28;1064;-44
2023/08/28 01:05:08;;;;;;;3.30;2.70;;;;;;;19.13;63.12;93234.63;511943;28;1632;-44
2023/08/28 01:05:35;;;;;;;3.47;2.75;;;;;;;19.13;62.95;93238.16;512071;28;856;-44
2023/08/28 01:05:51;;;;;;;2.35;2.13;;;;;;;19.15;62.93;93232.66;510061;29;885;-44
2023/08/28 01:06:46;;;;;;;2.43;2.10;;;;;;;19.16;62.87;93225.00;511092;29;1311;-45
2023/08/28 01:07:17;;;;;;;2.70;2.50;;;;;;;19.17;62.92;93232.03;506238;29;1194;-45
2023/08/28 01:07:45;;;;;;;2.90;2.55;;;;;;;19.18;63.21;93236.31;507983;29;948;-45
2023/08/28 01:08:22;;;;;;;3.97;2.40;;;;;;;19.19;63.23;93235.69;505684;29;1731;-44
2023/08/28 01:09:06;;;;;;;2.45;2.25;;;;;;;19.20;63.37;93239.22;505146;29;866;-45
2023/08/28 01:09:27;;;;;;;3.58;2.72;;;;;;;19.20;63.23;93239.97;507897;29;1117;-44
2023/08/28 01:09:54;;;;;;;3.78;2.53;;;;;;;19.22;63.27;93242.16;507978;29;850;-45
2023/08/28 01:10:21;;;;;;;2.92;2.33;;;;;;;19.21;63.26;93241.41;509769;29;869;-45
2023/08/28 01:10:46;;;;;;;3.13;2.47;;;;;;;19.23;63.43;93238.03;507906;29;881;-44
2023/08/28 01:11:10;;;;;;;3.03;2.20;;;;;;;19.22;63.33;93242.88;506999;29;882;-45
2023/08/28 01:11:57;;;;;;;2.95;2.65;;;;;;;19.22;63.51;93240.09;506053;29;850;-44
2023/08/28 01:12:34;;;;;;;2.72;2.50;;;;;;;19.23;63.42;93243.63;505983;29;959;-45
2023/08/28 01:12:59;;;;;;;2.50;2.30;;;;;;;19.22;63.41;93239.34;506596;29;889;-45
2023/08/28 01:13:22;;;;;;;2.25;2.05;;;;;;;19.23;63.26;93249.94;510129;29;842;-44
2023/08/28 01:13:51;;;;;;;2.38;2.17;;;;;;;19.24;63.32;93239.47;508507;29;1769;-44
2023/08/28 01:14:23;;;;;;;2.30;2.10;;;;;;;19.24;63.09;93240.19;508999;29;959;-44
2023/08/28 01:15:01;;;;;;;2.78;2.47;;;;;;;19.24;63.11;93247.88;510295;29;826;-43
2023/08/28 01:15:22;;;;;;;2.70;2.38;;;;;;;19.23;63.11;93241.53;511727;29;1229;-44
2023/08/28 01:15:38;;;;;;;2.75;2.10;;;;;;;19.22;63.16;93239.34;512054;29;1091;-44
2023/08/28 01:15:54;;;;;;;3.20;2.13;;;;;;;19.22;63.03;93242.16;512037;28;911;-44
2023/08/28 01:16:10;;;;;;;3.28;2.35;;;;;;;19.22;63.12;93239.34;511940;29;1927;-44
2023/08/28 01:16:27;;;;;;;3.30;2.60;;;;;;;19.22;63.20;93242.16;510098;29;879;-44
2023/08/28 01:16:44;;;;;;;2.50;2.25;;;;;;;19.21;63.24;93240.72;510121;29;808;-45
2023/08/28 01:17:05;;;;;;;2.50;2.30;;;;;;;19.22;63.21;93244.94;510043;29;928;-45
2023/08/28 01:17:21;;;;;;;6.00;2.50;;;;;;;19.21;63.11;93249.81;510162;29;829;-45
2023/08/28 01:17:38;;;;;;;5.95;2.30;;;;;;;19.20;63.27;93247.63;510021;29;892;-44
2023/08/28 01:18:00;;;;;;;2.90;2.10;;;;;;;19.19;63.13;93249.69;508076;29;891;-44
2023/08/28 01:18:16;;;;;;;3.13;2.35;;;;;;;19.18;63.05;93239.84;508419;29;1056;-45
2023/08/28 01:18:33;;;;;;;2.90;2.30;;;;;;;19.17;63.17;93240.44;510065;29;881;-45
2023/08/28 01:18:48;;;;;;;2.53;2.25;;;;;;;19.17;63.06;93240.44;508149;29;832;-44
2023/08/28 01:19:05;;;;;;;2.70;2.38;;;;;;;19.17;63.15;93237.66;508097;29;1717;-44
2023/08/28 01:19:31;;;;;;;2.80;2.45;;;;;;;19.16;63.08;93239.72;508174;29;909;-44
2023/08/28 01:19:46;;;;;;;2.95;2.25;;;;;;;19.16;62.93;93239.00;509753;28;1159;-44
2023/08/28 01:20:04;;;;;;;3.03;2.22;;;;;;;19.13;62.92;93243.00;509960;29;862;-45
2023/08/28 01:20:21;;;;;;;2.40;2.17;;;;;;;19.14;62.77;93245.22;512036;29;876;-46
2023/08/28 01:20:39;;;;;;;2.45;2.10;;;;;;;19.12;62.61;93239.50;511710;29;836;-45
2023/08/28 01:20:54;;;;;;;2.55;2.35;;;;;;;19.12;62.50;93238.75;508814;29;829;-44
2023/08/28 01:21:10;;;;;;;2.70;2.50;;;;;;;19.10;62.88;93247.75;510017;29;804;-45
2023/08/28 01:21:25;;;;;;;2.60;2.40;;;;;;;19.09;63.13;93240.72;508052;29;1251;-45
2023/08/28 01:21:44;;;;;;;2.38;2.17;;;;;;;18.97;63.05;93234.41;506184;29;774;-44
2023/08/28 01:22:09;;;;;;;2.33;2.00;;;;;;;19.06;62.96;93244.00;507159;29;936;-46